createdAt,value
2019-04-27T00:00:32.766Z,12.15
2019-04-27T00:01:10.517Z,12.12
2019-04-27T00:01:50.023Z,12.12
2019-04-27T00:02:30.440Z,12.16
2019-04-27T00:03:10.841Z,12.18
2019-04-27T00:03:51.197Z,12.16
2019-04-27T00:04:32.834Z,12.15
2019-04-27T00:05:12.010Z,12.13
2019-04-27T00:05:53.529Z,12.18
2019-04-27T00:06:33.721Z,12.13
2019-04-27T00:07:16.918Z,12.12
2019-04-27T00:08:38.706Z,12.01
2019-04-27T00:09:14.459Z,12.11
2019-04-27T00:09:54.752Z,12.11
2019-04-27T00:11:15.501Z,12.15
2019-04-27T00:11:55.897Z,12.13
2019-04-27T00:12:36.280Z,12.13
2019-04-27T00:13:16.681Z,12.15
2019-04-27T00:13:57.121Z,12.13
2019-04-27T00:14:37.475Z,12.01
2019-04-27T00:15:17.845Z,12.13
2019-04-27T00:15:58.325Z,12.08
2019-04-27T00:16:40.360Z,12.07
2019-04-27T00:17:19.390Z,12.03
2019-04-27T00:17:59.415Z,12
2019-04-27T00:18:39.785Z,12.05
2019-04-27T00:19:20.217Z,12.15
2019-04-27T00:20:00.589Z,12.04
2019-04-27T00:20:40.928Z,12.18
2019-04-27T00:21:21.340Z,12.12
2019-04-27T00:22:03.126Z,12.16
2019-04-27T00:22:43.542Z,12.26
2019-04-27T00:23:23.580Z,12.15
2019-04-27T00:24:03.434Z,12.22
2019-04-27T00:24:44.156Z,12.15
2019-04-27T00:25:23.696Z,12.16
2019-04-27T00:26:04.092Z,12.18
2019-04-27T00:26:45.499Z,12.16
2019-04-27T00:27:24.851Z,12.12
2019-04-27T00:28:05.536Z,12.12
2019-04-27T00:28:51.452Z,12.08
2019-04-27T00:29:33.147Z,12.04
2019-04-27T00:30:13.810Z,11.96
2019-04-27T00:30:53.219Z,11.9
2019-04-27T00:31:37.732Z,11.88
2019-04-27T00:32:19.929Z,11.97
2019-04-27T00:33:03.012Z,11.85
2019-04-27T00:33:45.011Z,11.79
2019-04-27T00:34:30.158Z,11.84
2019-04-27T00:36:43.506Z,11.67
2019-04-27T00:37:23.594Z,11.78
2019-04-27T00:38:03.114Z,11.82
2019-04-27T00:38:43.557Z,11.74
2019-04-27T00:39:23.433Z,11.84
2019-04-27T00:40:03.802Z,11.88
2019-04-27T00:40:44.249Z,11.98
2019-04-27T00:41:24.579Z,11.98
2019-04-27T00:42:04.979Z,12.04
2019-04-27T00:42:45.369Z,12.03
2019-04-27T00:45:02.945Z,11.98
2019-04-27T00:45:44.554Z,11.96
2019-04-27T00:46:24.969Z,11.9
2019-04-27T00:47:05.738Z,11.96
2019-04-27T00:47:56.142Z,11.77
2019-04-27T00:48:29.722Z,11.77
2019-04-27T00:49:13.736Z,11.59
2019-04-27T00:49:54.925Z,11.69
2019-04-27T00:50:35.082Z,11.59
2019-04-27T00:51:16.347Z,11.53
2019-04-27T00:51:59.579Z,11.57
2019-04-27T00:52:39.931Z,11.51
2019-04-27T00:53:23.500Z,11.45
2019-04-27T00:54:02.644Z,11.49
2019-04-27T00:54:44.110Z,11.49
2019-04-27T00:55:24.541Z,11.54
2019-04-27T00:56:14.779Z,11.54
2019-04-27T00:56:55.227Z,11.51
2019-04-27T00:57:36.572Z,11.48
2019-04-27T00:58:23.035Z,11.53
2019-04-27T00:59:05.071Z,11.62
2019-04-27T00:59:45.853Z,11.67
2019-04-27T01:00:28.623Z,11.63
2019-04-27T01:01:09.013Z,11.67
2019-04-27T01:01:49.446Z,11.75
2019-04-27T01:02:29.860Z,11.72
2019-04-27T01:04:31.028Z,11.64
2019-04-27T01:05:18.520Z,11.62
2019-04-27T01:06:08.438Z,11.48
2019-04-27T01:06:48.806Z,11.56
2019-04-27T01:07:33.366Z,11.56
2019-04-27T01:08:17.363Z,11.53
2019-04-27T01:08:56.291Z,11.33
2019-04-27T01:09:37.620Z,11.39
2019-04-27T01:10:18.022Z,11.35
2019-04-27T01:10:58.373Z,11.33
2019-04-27T01:11:38.790Z,11.33
2019-04-27T01:12:21.059Z,11.38
2019-04-27T01:13:03.083Z,11.28
2019-04-27T01:13:43.580Z,11.33
2019-04-27T01:14:55.590Z,11.39
2019-04-27T01:15:39.511Z,11.27
2019-04-27T01:16:24.137Z,11.2
2019-04-27T01:17:03.977Z,11.19
2019-04-27T01:17:45.100Z,11.12
2019-04-27T01:18:29.447Z,11.17
2019-04-27T01:19:10.377Z,11.21
2019-04-27T01:19:52.230Z,11.27
2019-04-27T01:20:32.604Z,11.3
2019-04-27T01:21:12.951Z,11.28
2019-04-27T01:21:53.348Z,11.28
2019-04-27T01:22:33.728Z,11.23
2019-04-27T01:23:14.219Z,11.21
2019-04-27T01:23:54.532Z,11.28
2019-04-27T01:24:34.910Z,11.26
2019-04-27T01:25:19.019Z,11.23
2019-04-27T01:25:59.695Z,11.19
2019-04-27T01:26:39.702Z,11.31
2019-04-27T01:27:20.026Z,11.26
2019-04-27T01:28:00.447Z,11.33
2019-04-27T01:28:42.792Z,11.35
2019-04-27T01:29:23.165Z,11.26
2019-04-27T01:34:50.561Z,11.09
2019-04-27T01:35:29.651Z,11.12
2019-04-27T01:36:10.732Z,11.11
2019-04-27T01:36:50.386Z,11.08
2019-04-27T01:37:30.767Z,11.12
2019-04-27T01:38:11.162Z,11.08
2019-04-27T01:38:51.613Z,11.12
2019-04-27T01:39:31.976Z,11.08
2019-04-27T01:40:12.376Z,11.09
2019-04-27T01:40:52.774Z,11.12
2019-04-27T01:41:33.157Z,11.12
2019-04-27T01:42:13.552Z,11.13
2019-04-27T01:42:53.993Z,11.09
2019-04-27T01:43:34.340Z,11.06
2019-04-27T02:00:13.526Z,11.2
2019-04-27T02:02:03.986Z,11.16
2019-04-27T02:05:18.985Z,11.09
2019-04-27T02:07:27.985Z,11.02
2019-04-27T02:08:20.255Z,11.08
2019-04-27T02:09:00.901Z,10.91
2019-04-27T02:09:45.654Z,10.86
2019-04-27T02:10:36.895Z,10.86
2019-04-27T02:11:20.668Z,10.87
2019-04-27T02:13:21.358Z,10.78
2019-04-27T02:17:32.024Z,10.93
2019-04-27T02:18:12.643Z,10.99
2019-04-27T02:18:53.592Z,10.98
2019-04-27T02:19:36.144Z,11.09
2019-04-27T02:20:16.556Z,11.16
2019-04-27T02:20:56.951Z,11.19
2019-04-27T02:21:39.020Z,11.17
2019-04-27T02:22:18.636Z,11.16
2019-04-27T02:22:58.762Z,11.23
2019-04-27T02:23:39.333Z,11.27
2019-04-27T02:24:22.834Z,11.33
2019-04-27T02:25:21.087Z,11.35
2019-04-27T02:26:00.045Z,11.35
2019-04-27T02:26:40.405Z,11.46
2019-04-27T02:27:22.703Z,11.51
2019-04-27T02:29:35.719Z,11.53
2019-04-27T02:30:22.900Z,11.51
2019-04-27T02:31:01.480Z,11.53
2019-04-27T02:31:40.321Z,11.51
2019-04-27T02:33:00.099Z,11.46
2019-04-27T02:33:40.578Z,11.35
2019-04-27T02:34:22.242Z,11.41
2019-04-27T02:35:04.977Z,11.31
2019-04-27T02:35:44.941Z,11.21
2019-04-27T02:36:31.000Z,11.28
2019-04-27T02:37:12.874Z,11.23
2019-04-27T02:37:53.478Z,11.31
2019-04-27T02:38:35.033Z,11.3
2019-04-27T02:39:15.216Z,11.31
2019-04-27T02:39:55.641Z,11.38
2019-04-27T02:40:39.706Z,11.42
2019-04-27T02:41:19.831Z,11.28
2019-04-27T02:42:00.145Z,11.26
2019-04-27T02:42:42.204Z,11.27
2019-04-27T02:43:40.005Z,11.21
2019-04-27T02:44:20.075Z,11.2
2019-04-27T02:45:03.852Z,11.11
2019-04-27T02:45:44.247Z,11.06
2019-04-27T02:46:25.142Z,11.03
2019-04-27T02:47:15.617Z,10.83
2019-04-27T02:47:56.003Z,10.76
2019-04-27T02:48:52.744Z,10.87
2019-04-27T02:49:20.507Z,10.84
2019-04-27T02:50:00.945Z,10.78
2019-04-27T02:50:42.240Z,10.73
2019-04-27T02:51:42.793Z,10.7
2019-04-27T02:52:26.824Z,10.57
2019-04-27T02:53:11.011Z,10.6
2019-04-27T02:53:49.859Z,10.57
2019-04-27T02:54:31.303Z,10.49
2019-04-27T02:55:12.359Z,10.44
2019-04-27T02:55:53.931Z,10.29
2019-04-27T02:56:35.861Z,10.28
2019-04-27T02:57:16.273Z,10.36
2019-04-27T02:57:59.630Z,10.22
2019-04-27T02:58:37.305Z,10.35
2019-04-27T02:59:21.106Z,10.31
2019-04-27T03:00:12.788Z,10.32
2019-04-27T03:00:52.825Z,10.35
2019-04-27T03:01:35.055Z,10.31
2019-04-27T03:02:20.227Z,10.31
2019-04-27T03:03:43.014Z,10.28
2019-04-27T03:04:26.413Z,10.28
2019-04-27T03:05:06.400Z,10.25
2019-04-27T03:05:50.242Z,10.29
2019-04-27T03:06:29.943Z,10.34
2019-04-27T03:07:15.143Z,10.38
2019-04-27T03:08:39.296Z,10.39
2019-04-27T03:09:20.431Z,10.42
2019-04-27T03:10:02.037Z,10.55
2019-04-27T03:10:41.648Z,10.44
2019-04-27T03:11:23.385Z,10.55
2019-04-27T03:12:03.168Z,10.46
2019-04-27T03:12:42.898Z,10.58
2019-04-27T03:13:23.299Z,10.47
2019-04-27T03:14:03.655Z,10.44
2019-04-27T03:16:20.438Z,10.55
2019-04-27T03:17:01.223Z,10.49
2019-04-27T03:17:41.606Z,10.55
2019-04-27T03:18:24.359Z,10.63
2019-04-27T03:19:17.678Z,10.55
2019-04-27T03:19:52.601Z,10.57
2019-04-27T03:20:37.264Z,10.51
2019-04-27T03:21:59.245Z,10.63
2019-04-27T03:22:39.761Z,10.66
2019-04-27T03:23:20.750Z,10.68
2019-04-27T03:24:01.502Z,10.68
2019-04-27T03:24:49.468Z,10.78
2019-04-27T03:25:30.296Z,10.91
2019-04-27T03:26:10.450Z,10.78
2019-04-27T03:26:51.524Z,10.76
2019-04-27T03:27:33.615Z,10.76
2019-04-27T03:28:19.988Z,10.63
2019-04-27T03:28:59.936Z,10.57
2019-04-27T03:29:42.354Z,10.54
2019-04-27T03:30:23.587Z,10.57
2019-04-27T03:31:04.797Z,10.39
2019-04-27T03:31:47.066Z,10.44
2019-04-27T03:32:25.523Z,10.43
2019-04-27T03:33:05.970Z,10.43
2019-04-27T03:33:46.367Z,10.49
2019-04-27T03:34:31.972Z,10.47
2019-04-27T03:35:12.681Z,10.42
2019-04-27T03:35:52.853Z,10.46
2019-04-27T03:36:32.103Z,10.44
2019-04-27T03:37:12.488Z,10.52
2019-04-27T03:37:53.036Z,10.54
2019-04-27T03:38:46.914Z,10.44
2019-04-27T03:39:29.949Z,10.54
2019-04-27T03:40:10.289Z,10.46
2019-04-27T03:40:50.449Z,10.42
2019-04-27T03:41:30.693Z,10.49
2019-04-27T03:42:11.083Z,10.43
2019-04-27T03:42:51.552Z,10.51
2019-04-27T03:43:31.895Z,10.54
2019-04-27T03:44:12.275Z,10.55
2019-04-27T03:44:52.968Z,10.47
2019-04-27T03:45:33.314Z,10.62
2019-04-27T03:46:13.719Z,10.68
2019-04-27T03:46:55.094Z,10.66
2019-04-27T03:47:43.046Z,10.69
2019-04-27T03:48:23.427Z,10.7
2019-04-27T03:49:03.896Z,10.69
2019-04-27T03:49:44.285Z,10.7
2019-04-27T03:50:24.726Z,10.66
2019-04-27T03:51:05.122Z,10.66
2019-04-27T03:51:45.500Z,10.66
2019-04-27T03:52:25.912Z,10.68
2019-04-27T03:53:06.322Z,10.66
2019-04-27T03:53:46.914Z,10.72
2019-04-27T03:55:10.720Z,10.91
2019-04-27T03:55:51.018Z,10.9
2019-04-27T03:56:31.404Z,10.88
2019-04-27T03:57:11.756Z,10.95
2019-04-27T03:57:52.378Z,11.06
2019-04-27T04:03:02.302Z,11.02
2019-04-27T04:03:59.944Z,11.02
2019-04-27T04:04:50.645Z,10.95
2019-04-27T04:05:41.635Z,10.91
2019-04-27T04:07:42.456Z,10.9
2019-04-27T04:09:22.016Z,10.9
2019-04-27T04:11:25.104Z,10.72
2019-04-27T04:18:53.319Z,10.57
2019-04-27T04:20:55.356Z,10.58
2019-04-27T04:21:43.277Z,10.52
2019-04-27T04:22:23.501Z,10.51
2019-04-27T04:23:07.111Z,10.58
2019-04-27T04:23:49.565Z,10.6
2019-04-27T04:24:31.863Z,10.68
2019-04-27T04:25:12.053Z,10.68
2019-04-27T04:25:52.476Z,10.7
2019-04-27T04:26:33.244Z,10.73
2019-04-27T05:16:34.016Z,10.57
2019-04-27T05:17:24.507Z,10.7
2019-04-27T05:22:25.585Z,10.99
2019-04-27T05:23:20.198Z,11.02
2019-04-27T05:23:58.574Z,11.05
2019-04-27T05:24:39.311Z,11.06
2019-04-27T05:25:18.653Z,11.06
2019-04-27T05:25:59.323Z,11.16
2019-04-27T05:26:39.783Z,11.05
2019-04-27T05:27:19.836Z,11.09
2019-04-27T05:28:00.187Z,11.08
2019-04-27T05:28:40.883Z,11.11
2019-04-27T05:29:21.382Z,11.11
2019-04-27T05:30:02.860Z,11.09
2019-04-27T05:30:43.362Z,11.2
2019-04-27T05:31:25.892Z,11.08
2019-04-27T05:32:06.163Z,11.16
2019-04-27T05:32:46.719Z,11.19
2019-04-27T05:33:28.580Z,11.23
2019-04-27T05:34:09.578Z,11.21
2019-04-27T05:34:49.613Z,11.21
2019-04-27T05:35:30.489Z,11.23
2019-04-27T05:36:15.313Z,11.28
2019-04-27T05:36:55.820Z,11.39
2019-04-27T05:37:36.554Z,11.45
2019-04-27T05:38:19.250Z,11.49
2019-04-27T05:38:59.709Z,11.63
2019-04-27T05:39:39.518Z,11.6
2019-04-27T05:40:20.327Z,11.57
2019-04-27T05:41:00.736Z,11.62
2019-04-27T05:41:41.775Z,11.57
2019-04-27T05:42:22.136Z,11.54
2019-04-27T05:43:02.549Z,11.63
2019-04-27T05:43:42.972Z,11.72
2019-04-27T05:44:23.409Z,11.6
2019-04-27T05:45:03.872Z,11.81
2019-04-27T05:45:44.347Z,11.79
2019-04-27T05:46:24.802Z,11.88
2019-04-27T05:47:09.200Z,11.9
2019-04-27T05:47:48.278Z,11.87
2019-04-27T05:48:27.656Z,11.9
2019-04-27T05:49:09.515Z,11.87
2019-04-27T05:50:01.832Z,11.88
2019-04-27T05:50:51.248Z,11.9
2019-04-27T05:51:36.596Z,11.94
2019-04-27T05:52:14.484Z,11.97
2019-04-27T05:52:59.729Z,11.94
2019-04-27T06:02:09.313Z,12
2019-04-27T06:04:08.968Z,12.12
2019-04-27T06:05:49.174Z,12.13
2019-04-27T06:14:21.063Z,12.36
2019-04-27T06:52:29.096Z,12.56
2019-04-27T07:14:14.146Z,12.67
2019-04-27T07:15:49.050Z,12.73
2019-04-27T07:17:49.296Z,12.74
2019-04-27T07:18:39.725Z,12.84
2019-04-27T07:19:26.514Z,12.92
2019-04-27T07:20:05.117Z,12.87
2019-04-27T07:20:48.633Z,12.88
2019-04-27T07:21:32.163Z,12.88
2019-04-27T07:22:32.423Z,12.84
2019-04-27T07:23:11.684Z,12.98
2019-04-27T07:23:59.303Z,12.94
2019-04-27T07:24:40.593Z,12.95
2019-04-27T07:25:19.441Z,13.01
2019-04-27T07:26:01.216Z,12.96
2019-04-27T07:26:42.131Z,12.94
2019-04-27T07:27:22.663Z,12.91
2019-04-27T07:28:04.701Z,13.01
2019-04-27T07:34:25.827Z,12.98
2019-04-27T07:35:21.865Z,13.06
2019-04-27T07:36:22.963Z,13.07
2019-04-27T07:38:09.799Z,13.01
2019-04-27T07:39:06.051Z,12.92
2019-04-27T07:40:09.248Z,12.77
2019-04-27T07:41:11.040Z,12.8
2019-04-27T07:42:15.125Z,12.7
2019-04-27T07:43:12.291Z,12.73
2019-04-27T07:44:08.358Z,12.71
2019-04-27T07:45:04.876Z,12.59
2019-04-27T07:47:32.398Z,12.55
2019-04-27T07:48:19.580Z,12.7
2019-04-27T07:49:03.118Z,12.71
2019-04-27T07:49:51.346Z,12.63
2019-04-27T07:50:34.809Z,12.62
2019-04-27T07:51:34.338Z,12.66
2019-04-27T07:52:14.049Z,12.71
2019-04-27T07:52:58.650Z,12.73
2019-04-27T07:53:46.951Z,12.77
2019-04-27T07:54:28.459Z,12.77
2019-04-27T07:55:08.724Z,12.79
2019-04-27T07:56:33.721Z,12.87
2019-04-27T07:57:20.773Z,12.96
2019-04-27T07:58:12.093Z,13.01
2019-04-27T07:58:56.538Z,13.04
2019-04-27T07:59:44.505Z,13.1
2019-04-27T08:00:34.719Z,13.14
2019-04-27T08:01:30.016Z,13.22
2019-04-27T08:04:06.289Z,13.06
2019-04-27T08:04:59.554Z,12.96
2019-04-27T08:07:32.547Z,12.91
2019-04-27T08:09:24.714Z,12.95
2019-04-27T08:17:42.832Z,13.22
2019-04-27T08:18:46.673Z,13.27
2019-04-27T08:22:12.650Z,13.38
2019-04-27T08:23:09.406Z,13.44
2019-04-27T08:24:02.425Z,13.44
2019-04-27T08:25:11.492Z,13.46
2019-04-27T08:26:05.912Z,13.35
2019-04-27T08:27:06.788Z,13.35
2019-04-27T08:28:06.383Z,13.29
2019-04-27T08:28:59.941Z,13.22
2019-04-27T08:29:58.650Z,13.22
2019-04-27T08:31:53.969Z,13.21
2019-04-27T08:34:11.855Z,13.36
2019-04-27T08:36:04.894Z,13.65
2019-04-27T08:37:00.660Z,13.72
2019-04-27T08:37:58.935Z,13.68
2019-04-27T08:40:39.437Z,13.62
2019-04-27T08:41:33.682Z,13.76
2019-04-27T08:42:32.213Z,13.86
2019-04-27T08:43:29.117Z,14.05
2019-04-27T08:44:27.026Z,14.13
2019-04-27T08:45:19.466Z,14.34
2019-04-27T08:46:18.784Z,14.49
2019-04-27T08:47:22.702Z,14.31
2019-04-27T08:49:06.557Z,14.13
2019-04-27T08:50:00.698Z,13.93
2019-04-27T08:50:55.156Z,13.93
2019-04-27T08:55:59.293Z,13.57
2019-04-27T08:57:15.993Z,13.62
2019-04-27T09:01:15.616Z,13.71
2019-04-27T09:02:09.422Z,13.83
2019-04-27T09:03:02.525Z,13.96
2019-04-27T09:03:56.779Z,14.17
2019-04-27T09:04:59.425Z,14.17
2019-04-27T09:05:59.289Z,14.46
2019-04-27T09:06:53.030Z,14.61
2019-04-27T09:07:49.605Z,14.71
2019-04-27T09:08:43.119Z,14.79
2019-04-27T09:09:36.442Z,14.94
2019-04-27T09:10:29.195Z,15.01
2019-04-27T09:11:25.826Z,15.25
2019-04-27T09:12:22.514Z,15.31
2019-04-27T09:13:25.217Z,15.3
2019-04-27T09:14:40.583Z,15.38
2019-04-27T09:15:49.382Z,15.6
2019-04-27T09:17:32.736Z,15.3
2019-04-27T09:18:45.030Z,14.8
2019-04-27T09:21:23.058Z,13.84
2019-04-27T09:22:12.019Z,13.5
2019-04-27T09:22:44.935Z,13.24
2019-04-27T09:23:25.552Z,12.96
2019-04-27T09:24:06.903Z,12.76
2019-04-27T09:24:47.255Z,12.62
2019-04-27T09:25:29.445Z,12.51
2019-04-27T09:26:09.508Z,12.46
2019-04-27T09:26:49.174Z,12.46
2019-04-27T09:27:29.187Z,12.37
2019-04-27T09:28:09.831Z,12.29
2019-04-27T09:28:51.048Z,12.36
2019-04-27T09:29:31.440Z,12.12
2019-04-27T09:30:11.813Z,12
2019-04-27T09:30:54.383Z,12.12
2019-04-27T09:31:34.942Z,12.15
2019-04-27T09:32:16.016Z,12.07
2019-04-27T09:32:56.741Z,11.98
2019-04-27T09:33:37.328Z,12.11
2019-04-27T09:34:18.898Z,12.18
2019-04-27T09:34:58.819Z,12.26
2019-04-27T09:35:39.270Z,12.38
2019-04-27T09:36:19.783Z,12.31
2019-04-27T09:37:01.822Z,12.38
2019-04-27T09:37:42.709Z,12.41
2019-04-27T09:38:23.323Z,12.4
2019-04-27T09:39:03.754Z,12.4
2019-04-27T09:39:45.875Z,12.48
2019-04-27T09:40:24.537Z,12.48
2019-04-27T09:41:07.143Z,12.49
2019-04-27T09:41:45.970Z,12.46
2019-04-27T09:42:26.809Z,12.55
2019-04-27T09:43:07.491Z,12.69
2019-04-27T09:43:47.676Z,12.84
2019-04-27T09:44:28.139Z,12.79
2019-04-27T09:45:08.626Z,12.77
2019-04-27T09:45:49.041Z,12.81
2019-04-27T09:46:29.407Z,12.99
2019-04-27T09:47:09.940Z,12.98
2019-04-27T09:47:50.358Z,13.01
2019-04-27T09:49:12.165Z,12.98
2019-04-27T09:49:52.249Z,13.13
2019-04-27T09:50:32.773Z,13.21
2019-04-27T09:51:14.155Z,13.16
2019-04-27T09:51:55.669Z,13.17
2019-04-27T09:52:35.816Z,13.16
2019-04-27T09:53:15.804Z,13.12
2019-04-27T09:53:56.355Z,13.19
2019-04-27T09:54:36.890Z,13.25
2019-04-27T09:55:17.348Z,13.19
2019-04-27T09:55:57.747Z,13.29
2019-04-27T09:56:38.149Z,13.24
2019-04-27T09:57:19.075Z,13.25
2019-04-27T09:57:59.630Z,13.36
2019-04-27T09:58:40.124Z,13.48
2019-04-27T09:59:21.035Z,13.44
2019-04-27T10:00:01.534Z,13.46
2019-04-27T10:00:42.695Z,13.62
2019-04-27T10:01:26.427Z,13.57
2019-04-27T10:02:05.547Z,13.61
2019-04-27T10:02:48.544Z,13.61
2019-04-27T10:03:30.058Z,13.61
2019-04-27T10:04:11.818Z,13.68
2019-04-27T10:04:52.764Z,13.72
2019-04-27T10:05:33.424Z,13.66
2019-04-27T10:06:16.291Z,13.69
2019-04-27T10:06:56.954Z,13.79
2019-04-27T10:07:37.103Z,13.86
2019-04-27T10:10:19.585Z,13.87
2019-04-27T10:11:02.232Z,13.91
2019-04-27T10:11:44.308Z,13.87
2019-04-27T10:12:26.052Z,13.87
2019-04-27T10:13:06.966Z,13.86
2019-04-27T10:13:46.850Z,13.93
2019-04-27T10:14:27.165Z,13.94
2019-04-27T10:15:08.659Z,13.93
2019-04-27T10:15:54.358Z,14.02
2019-04-27T10:16:36.501Z,14.06
2019-04-27T10:17:59.173Z,14.02
2019-04-27T10:18:40.711Z,14.17
2019-04-27T10:19:29.130Z,14.17
2019-04-27T10:20:03.401Z,14.19
2019-04-27T10:20:56.819Z,14.19
2019-04-27T10:21:26.397Z,14.13
2019-04-27T10:22:06.400Z,14.12
2019-04-27T10:22:46.757Z,14.26
2019-04-27T10:23:27.080Z,14.23
2019-04-27T10:24:08.423Z,14.24
2019-04-27T10:24:48.872Z,14.34
2019-04-27T10:25:30.699Z,14.26
2019-04-27T10:26:10.568Z,14.34
2019-04-27T10:26:51.444Z,14.39
2019-04-27T10:27:31.846Z,14.42
2019-04-27T10:28:13.069Z,14.48
2019-04-27T11:11:36.527Z,13.98
2019-04-27T11:12:17.153Z,13.99
2019-04-27T11:12:57.494Z,13.98
2019-04-27T11:13:38.295Z,13.91
2019-04-27T11:14:19.337Z,13.81
2019-04-27T11:14:59.627Z,13.73
2019-04-27T11:15:40.959Z,13.69
2019-04-27T11:16:21.423Z,13.63
2019-04-27T11:17:02.334Z,13.76
2019-04-27T11:17:42.997Z,13.86
2019-04-27T11:18:25.758Z,13.75
2019-04-27T11:19:06.838Z,13.8
2019-04-27T11:19:48.253Z,13.88
2019-04-27T11:20:29.191Z,13.88
2019-04-27T11:21:10.322Z,13.96
2019-04-27T11:21:50.756Z,14.02
2019-04-27T11:22:31.354Z,13.98
2019-04-27T11:23:12.973Z,14.12
2019-04-27T11:23:55.942Z,14.06
2019-04-27T11:24:34.877Z,14.04
2019-04-27T11:25:16.412Z,14.06
2019-04-27T11:25:56.112Z,14.11
2019-04-27T11:26:36.397Z,14.11
2019-04-27T11:27:16.577Z,14.17
2019-04-27T11:27:57.793Z,14.26
2019-04-27T11:28:37.495Z,14.21
2019-04-27T11:29:18.039Z,14.16
2019-04-27T11:29:58.255Z,14.2
2019-04-27T11:30:38.979Z,14.12
2019-04-27T11:31:19.353Z,14.11
2019-04-27T11:31:59.762Z,14.12
2019-04-27T11:32:40.173Z,14.17
2019-04-27T11:33:20.565Z,14.17
2019-04-27T11:34:00.972Z,14.2
2019-04-27T11:34:41.333Z,14.2
2019-04-27T11:35:21.803Z,14.34
2019-04-27T11:36:02.496Z,14.34
2019-04-27T11:37:23.326Z,14.38
2019-04-27T11:38:05.455Z,14.35
2019-04-27T11:38:44.203Z,14.35
2019-04-27T11:39:26.014Z,14.41
2019-04-27T11:40:05.178Z,14.41
2019-04-27T11:40:46.598Z,14.39
2019-04-27T11:41:26.354Z,14.54
2019-04-27T11:42:08.160Z,14.41
2019-04-27T11:42:48.568Z,14.44
2019-04-27T11:43:28.926Z,14.39
2019-04-27T11:44:09.467Z,14.41
2019-04-27T11:44:49.830Z,14.34
2019-04-27T11:45:30.185Z,14.42
2019-04-27T11:46:10.546Z,14.3
2019-04-27T11:46:50.955Z,14.27
2019-04-27T11:47:31.388Z,14.34
2019-04-27T11:48:11.729Z,14.29
2019-04-27T11:48:52.128Z,14.27
2019-04-27T11:49:32.528Z,14.12
2019-04-27T11:50:12.990Z,14.12
2019-04-27T11:50:53.356Z,14.04
2019-04-27T11:51:33.865Z,13.96
2019-04-27T11:52:15.722Z,13.99
2019-04-27T11:52:56.465Z,13.88
2019-04-27T11:53:35.948Z,13.81
2019-04-27T11:54:15.545Z,13.84
2019-04-27T11:54:56.646Z,13.88
2019-04-27T11:55:37.697Z,13.96
2019-04-27T11:56:17.874Z,13.99
2019-04-27T11:56:58.179Z,13.91
2019-04-27T11:57:38.600Z,13.93
2019-04-27T11:58:19.161Z,14.01
2019-04-27T11:58:59.547Z,14.16
2019-04-27T11:59:39.989Z,14.09
2019-04-27T12:00:20.509Z,14.11
2019-04-27T12:01:00.858Z,14.19
2019-04-27T12:01:41.231Z,14.26
2019-04-27T12:02:21.862Z,14.38
2019-04-27T12:03:02.324Z,14.34
2019-04-27T12:03:42.694Z,14.35
2019-04-27T12:04:23.166Z,14.41
2019-04-27T12:05:03.540Z,14.35
2019-04-27T12:05:44.034Z,14.45
2019-04-27T12:06:25.834Z,14.45
2019-04-27T12:07:06.370Z,14.44
2019-04-27T12:07:47.249Z,14.54
2019-04-27T12:09:06.103Z,14.57
2019-04-27T12:09:48.058Z,14.53
2019-04-27T12:10:27.789Z,14.49
2019-04-27T12:11:08.961Z,14.39
2019-04-27T12:11:49.394Z,14.44
2019-04-27T12:12:30.253Z,14.56
2019-04-27T12:13:10.672Z,14.57
2019-04-27T12:13:51.552Z,14.61
2019-04-27T12:14:31.855Z,14.45
2019-04-27T12:15:12.303Z,14.52
2019-04-27T12:15:54.523Z,14.56
2019-04-27T12:16:36.016Z,14.59
2019-04-27T12:23:06.606Z,14.46
2019-04-27T12:23:47.177Z,14.48
2019-04-27T12:24:27.766Z,14.45
2019-04-27T12:25:09.783Z,14.61
2019-04-27T12:25:50.281Z,14.63
2019-04-27T12:26:31.864Z,14.64
2019-04-27T12:27:12.320Z,14.6
2019-04-27T12:27:54.569Z,14.69
2019-04-27T12:28:35.601Z,14.78
2019-04-27T12:29:16.173Z,14.83
2019-04-27T12:30:37.112Z,15.05
2019-04-27T12:31:18.751Z,15.13
2019-04-27T12:32:06.931Z,15.18
2019-04-27T12:32:49.260Z,15.4
2019-04-27T12:33:29.644Z,15.48
2019-04-27T12:34:10.930Z,15.53
2019-04-27T12:34:53.117Z,15.68
2019-04-27T12:35:36.826Z,15.73
2019-04-27T12:36:15.872Z,15.8
2019-04-27T12:36:56.652Z,15.85
2019-04-27T12:37:37.154Z,15.96
2019-04-27T12:38:18.448Z,16.07
2019-04-27T12:38:59.042Z,16.26
2019-04-27T12:39:39.427Z,16.41
2019-04-27T12:40:20.098Z,16.41
2019-04-27T12:41:00.529Z,16.18
2019-04-27T12:41:41.955Z,16.13
2019-04-27T12:42:22.363Z,16.16
2019-04-27T12:43:02.759Z,16.13
2019-04-27T12:43:45.706Z,16.29
2019-04-27T12:44:26.059Z,16.23
2019-04-27T12:45:06.976Z,16.11
2019-04-27T12:45:47.981Z,16.33
2019-04-27T12:46:29.294Z,16.44
2019-04-27T12:47:09.696Z,16.65
2019-04-27T12:47:50.148Z,16.91
2019-04-27T12:48:30.504Z,17.15
2019-04-27T12:49:11.314Z,17.1
2019-04-27T12:49:51.796Z,17.15
2019-04-27T12:50:36.004Z,17.24
2019-04-27T12:51:15.044Z,17.3
2019-04-27T12:51:55.846Z,17.46
2019-04-27T12:52:37.821Z,17.51
2019-04-27T12:53:18.069Z,17.54
2019-04-27T12:53:58.454Z,17.62
2019-04-27T12:54:41.911Z,17.6
2019-04-27T12:55:23.242Z,17.63
2019-04-27T12:56:06.179Z,17.65
2019-04-27T12:56:45.748Z,17.58
2019-04-27T12:57:28.013Z,17.57
2019-04-27T12:58:09.405Z,17.57
2019-04-27T12:58:52.175Z,17.62
2019-04-27T12:59:33.203Z,17.46
2019-04-27T13:00:13.642Z,17.51
2019-04-27T13:02:12.891Z,17.32
2019-04-27T13:02:57.677Z,17.43
2019-04-27T13:03:36.417Z,17.38
2019-04-27T13:04:16.524Z,17.47
2019-04-27T13:04:56.965Z,17.54
2019-04-27T13:05:37.392Z,17.62
2019-04-27T13:06:17.874Z,17.77
2019-04-27T13:06:59.946Z,17.83
2019-04-27T13:07:40.335Z,17.96
2019-04-27T13:08:20.721Z,18.17
2019-04-27T13:09:02.017Z,18.17
2019-04-27T13:10:24.546Z,18.34
2019-04-27T13:11:06.882Z,18.53
2019-04-27T13:11:47.398Z,18.6
2019-04-27T13:12:27.690Z,18.83
2019-04-27T13:13:08.080Z,18.89
2019-04-27T13:13:49.391Z,18.93
2019-04-27T13:14:29.763Z,19.05
2019-04-27T13:15:10.238Z,18.99
2019-04-27T13:15:50.650Z,19.12
2019-04-27T13:16:31.870Z,19.06
2019-04-27T13:17:12.253Z,19.06
2019-04-27T13:17:52.803Z,19.01
2019-04-27T13:18:33.139Z,19.05
2019-04-27T13:19:15.781Z,19.09
2019-04-27T13:19:57.055Z,19.15
2019-04-27T13:20:37.673Z,19.1
2019-04-27T13:21:20.719Z,19.06
2019-04-27T13:21:58.669Z,19.07
2019-04-27T13:22:39.120Z,19.07
2019-04-27T13:23:20.374Z,19.05
2019-04-27T13:24:04.484Z,19.02
2019-04-27T13:24:42.160Z,19.1
2019-04-27T13:25:22.456Z,19.13
2019-04-27T13:26:03.026Z,19.06
2019-04-27T13:26:45.631Z,19.12
2019-04-27T13:27:24.846Z,19.09
2019-04-27T13:28:05.688Z,19.09
2019-04-27T13:28:46.679Z,19.06
2019-04-27T13:29:26.192Z,19.06
2019-04-27T13:30:07.355Z,19.06
2019-04-27T13:30:47.494Z,18.99
2019-04-27T13:31:28.481Z,19.16
2019-04-27T13:32:09.092Z,19.28
2019-04-27T13:32:49.476Z,19.35
2019-04-27T13:33:36.303Z,19.3
2019-04-27T13:34:15.860Z,19.35
2019-04-27T13:34:56.666Z,19.27
2019-04-27T13:35:37.012Z,19.17
2019-04-27T13:36:18.061Z,19.12
2019-04-27T13:36:58.432Z,19.07
2019-04-27T13:37:38.882Z,19.06
2019-04-27T13:38:19.301Z,18.9
2019-04-27T13:39:00.640Z,18.71
2019-04-27T13:39:41.017Z,18.59
2019-04-27T13:40:21.851Z,18.57
2019-04-27T13:41:03.132Z,18.53
2019-04-27T13:41:43.480Z,18.46
2019-04-27T13:42:25.671Z,18.44
2019-04-27T13:43:05.472Z,18.36
2019-04-27T13:43:46.138Z,18.38
2019-04-27T13:44:27.221Z,18.31
2019-04-27T13:45:08.495Z,18.32
2019-04-27T13:45:52.475Z,18.2
2019-04-27T13:46:33.173Z,17.92
2019-04-27T13:47:13.719Z,17.71
2019-04-27T13:47:56.047Z,17.45
2019-04-27T13:48:36.386Z,17
2019-04-27T13:49:17.548Z,16.65
2019-04-27T13:49:56.316Z,16.36
2019-04-27T13:50:37.210Z,16.01
2019-04-27T13:51:17.264Z,15.89
2019-04-27T13:51:57.857Z,15.51
2019-04-27T13:52:38.909Z,15.33
2019-04-27T13:53:21.040Z,15.2
2019-04-27T13:54:15.558Z,14.91
2019-04-27T13:54:49.342Z,14.74
2019-04-27T13:55:30.397Z,14.8
2019-04-27T13:56:12.152Z,14.6
2019-04-27T14:01:07.848Z,13.53
2019-04-27T14:01:48.361Z,13.5
2019-04-27T14:02:32.200Z,13.44
2019-04-27T14:03:11.666Z,13.46
2019-04-27T14:03:52.483Z,13.46
2019-04-27T14:04:33.564Z,13.36
2019-04-27T14:05:14.196Z,13.38